sensor_id;sensor_type;location;lat;lon;timestamp;P1;durP1;ratioP1;P2;durP2;ratioP2
63050;SDS011;49136;47.416;19.402;2023-03-21T00:00:37;11.93;;;5.90;;
63050;SDS011;49136;47.416;19.402;2023-03-21T00:03:03;12.05;;;5.85;;
63050;SDS011;49136;47.416;19.402;2023-03-21T00:05:28;9.57;;;5.32;;
63050;SDS011;49136;47.416;19.402;2023-03-21T00:07:54;13.30;;;6.93;;
63050;SDS011;49136;47.416;19.402;2023-03-21T00:10:20;13.43;;;5.35;;
63050;SDS011;49136;47.416;19.402;2023-03-21T00:12:46;13.82;;;7.10;;
63050;SDS011;49136;47.416;19.402;2023-03-21T00:15:14;11.98;;;5.80;;
63050;SDS011;49136;47.416;19.402;2023-03-21T00:17:42;10.70;;;6.60;;
63050;SDS011;49136;47.416;19.402;2023-03-21T00:20:09;14.10;;;6.50;;
63050;SDS011;49136;47.416;19.402;2023-03-21T00:22:39;13.73;;;6.07;;
63050;SDS011;49136;47.416;19.402;2023-03-21T00:25:05;16.52;;;6.70;;
63050;SDS011;49136;47.416;19.402;2023-03-21T00:27:32;26.13;;;7.30;;
63050;SDS011;49136;47.416;19.402;2023-03-21T00:29:58;13.02;;;6.47;;
63050;SDS011;49136;47.416;19.402;2023-03-21T00:32:23;16.98;;;6.38;;
63050;SDS011;49136;47.416;19.402;2023-03-21T00:34:49;12.30;;;6.32;;
63050;SDS011;49136;47.416;19.402;2023-03-21T00:37:15;18.70;;;7.70;;
63050;SDS011;49136;47.416;19.402;2023-03-21T00:39:42;9.57;;;5.45;;
63050;SDS011;49136;47.416;19.402;2023-03-21T00:42:12;12.73;;;5.97;;
63050;SDS011;49136;47.416;19.402;2023-03-21T00:44:38;12.00;;;6.75;;
63050;SDS011;49136;47.416;19.402;2023-03-21T00:47:04;15.07;;;7.63;;
63050;SDS011;49136;47.416;19.402;2023-03-21T00:49:30;16.83;;;6.30;;
63050;SDS011;49136;47.416;19.402;2023-03-21T00:52:00;13.13;;;6.72;;
63050;SDS011;49136;47.416;19.402;2023-03-21T00:54:27;17.23;;;7.35;;
63050;SDS011;49136;47.416;19.402;2023-03-21T00:56:53;13.63;;;6.78;;
63050;SDS011;49136;47.416;19.402;2023-03-21T00:59:18;16.25;;;7.03;;
63050;SDS011;49136;47.416;19.402;2023-03-21T01:01:44;6.90;;;4.75;;
63050;SDS011;49136;47.416;19.402;2023-03-21T01:04:11;13.82;;;6.72;;
63050;SDS011;49136;47.416;19.402;2023-03-21T01:06:38;14.63;;;6.38;;
63050;SDS011;49136;47.416;19.402;2023-03-21T01:09:06;16.42;;;6.80;;
63050;SDS011;49136;47.416;19.402;2023-03-21T01:11:36;10.00;;;5.75;;
63050;SDS011;49136;47.416;19.402;2023-03-21T01:14:01;15.02;;;7.65;;
63050;SDS011;49136;47.416;19.402;2023-03-21T01:16:27;12.05;;;6.85;;
63050;SDS011;49136;47.416;19.402;2023-03-21T01:18:52;16.42;;;7.85;;
63050;SDS011;49136;47.416;19.402;2023-03-21T01:21:18;16.60;;;7.80;;
63050;SDS011;49136;47.416;19.402;2023-03-21T01:23:44;14.25;;;6.65;;
63050;SDS011;49136;47.416;19.402;2023-03-21T01:26:10;10.70;;;5.47;;
63050;SDS011;49136;47.416;19.402;2023-03-21T01:28:37;15.30;;;8.10;;
63050;SDS011;49136;47.416;19.402;2023-03-21T01:31:04;13.77;;;7.20;;
63050;SDS011;49136;47.416;19.402;2023-03-21T01:33:30;16.70;;;7.97;;
63050;SDS011;49136;47.416;19.402;2023-03-21T01:35:57;12.75;;;6.05;;
63050;SDS011;49136;47.416;19.402;2023-03-21T01:38:23;18.48;;;7.18;;
63050;SDS011;49136;47.416;19.402;2023-03-21T01:40:49;13.10;;;6.03;;
63050;SDS011;49136;47.416;19.402;2023-03-21T01:46:07;18.30;;;8.55;;
63050;SDS011;49136;47.416;19.402;2023-03-21T01:48:33;13.85;;;6.75;;
63050;SDS011;49136;47.416;19.402;2023-03-21T01:51:03;16.08;;;7.75;;
63050;SDS011;49136;47.416;19.402;2023-03-21T01:53:30;17.60;;;9.73;;
63050;SDS011;49136;47.416;19.402;2023-03-21T01:56:00;18.48;;;7.65;;
63050;SDS011;49136;47.416;19.402;2023-03-21T01:58:30;13.63;;;8.68;;
63050;SDS011;49136;47.416;19.402;2023-03-21T02:00:57;23.23;;;9.68;;
63050;SDS011;49136;47.416;19.402;2023-03-21T02:03:24;19.67;;;9.60;;
63050;SDS011;49136;47.416;19.402;2023-03-21T02:06:00;15.23;;;7.70;;
63050;SDS011;49136;47.416;19.402;2023-03-21T02:08:29;26.63;;;8.77;;
63050;SDS011;49136;47.416;19.402;2023-03-21T02:10:56;30.83;;;10.02;;
63050;SDS011;49136;47.416;19.402;2023-03-21T02:13:22;17.35;;;7.05;;
63050;SDS011;49136;47.416;19.402;2023-03-21T02:15:51;16.48;;;8.48;;
63050;SDS011;49136;47.416;19.402;2023-03-21T02:37:54;15.50;;;6.95;;
63050;SDS011;49136;47.416;19.402;2023-03-21T02:40:29;14.48;;;7.05;;
63050;SDS011;49136;47.416;19.402;2023-03-21T02:45:45;14.98;;;7.35;;
63050;SDS011;49136;47.416;19.402;2023-03-21T02:48:21;16.08;;;8.10;;
63050;SDS011;49136;47.416;19.402;2023-03-21T02:50:55;22.60;;;6.78;;
63050;SDS011;49136;47.416;19.402;2023-03-21T02:53:24;11.48;;;6.88;;
63050;SDS011;49136;47.416;19.402;2023-03-21T02:55:54;16.95;;;8.52;;
63050;SDS011;49136;47.416;19.402;2023-03-21T02:58:22;16.65;;;7.65;;
63050;SDS011;49136;47.416;19.402;2023-03-21T03:00:49;14.15;;;7.88;;
63050;SDS011;49136;47.416;19.402;2023-03-21T03:03:19;14.02;;;6.65;;
63050;SDS011;49136;47.416;19.402;2023-03-21T03:05:49;16.42;;;8.13;;
63050;SDS011;49136;47.416;19.402;2023-03-21T03:13:34;17.63;;;8.25;;
63050;SDS011;49136;47.416;19.402;2023-03-21T03:19:06;18.35;;;8.57;;
63050;SDS011;49136;47.416;19.402;2023-03-21T03:27:01;15.07;;;8.75;;
63050;SDS011;49136;47.416;19.402;2023-03-21T03:29:32;18.08;;;8.48;;
63050;SDS011;49136;47.416;19.402;2023-03-21T03:32:09;23.83;;;8.10;;
63050;SDS011;49136;47.416;19.402;2023-03-21T03:35:02;18.13;;;9.10;;
63050;SDS011;49136;47.416;19.402;2023-03-21T03:37:31;18.33;;;7.85;;
63050;SDS011;49136;47.416;19.402;2023-03-21T03:40:09;18.85;;;7.65;;
63050;SDS011;49136;47.416;19.402;2023-03-21T03:42:40;15.70;;;7.82;;
63050;SDS011;49136;47.416;19.402;2023-03-21T03:45:11;14.77;;;7.28;;
63050;SDS011;49136;47.416;19.402;2023-03-21T03:50:38;16.23;;;7.50;;
63050;SDS011;49136;47.416;19.402;2023-03-21T03:55:47;16.60;;;7.85;;
63050;SDS011;49136;47.416;19.402;2023-03-21T03:58:18;14.75;;;7.10;;
63050;SDS011;49136;47.416;19.402;2023-03-21T04:00:45;12.90;;;6.97;;
63050;SDS011;49136;47.416;19.402;2023-03-21T04:03:12;19.27;;;8.02;;
63050;SDS011;49136;47.416;19.402;2023-03-21T04:05:37;17.10;;;8.13;;
63050;SDS011;49136;47.416;19.402;2023-03-21T04:08:03;13.73;;;7.63;;
63050;SDS011;49136;47.416;19.402;2023-03-21T04:10:28;21.38;;;9.18;;
63050;SDS011;49136;47.416;19.402;2023-03-21T04:12:54;17.15;;;7.55;;
63050;SDS011;49136;47.416;19.402;2023-03-21T04:15:19;14.85;;;7.65;;
63050;SDS011;49136;47.416;19.402;2023-03-21T04:17:45;16.95;;;8.30;;
63050;SDS011;49136;47.416;19.402;2023-03-21T04:20:11;17.50;;;7.72;;
63050;SDS011;49136;47.416;19.402;2023-03-21T04:22:38;16.83;;;7.75;;
63050;SDS011;49136;47.416;19.402;2023-03-21T04:25:05;16.33;;;7.07;;
63050;SDS011;49136;47.416;19.402;2023-03-21T04:27:31;22.88;;;8.60;;
63050;SDS011;49136;47.416;19.402;2023-03-21T04:29:57;22.90;;;7.20;;
63050;SDS011;49136;47.416;19.402;2023-03-21T04:32:23;20.95;;;8.40;;
63050;SDS011;49136;47.416;19.402;2023-03-21T04:34:50;34.60;;;9.02;;
63050;SDS011;49136;47.416;19.402;2023-03-21T04:37:18;17.00;;;8.18;;
63050;SDS011;49136;47.416;19.402;2023-03-21T04:39:47;30.80;;;10.10;;
63050;SDS011;49136;47.416;19.402;2023-03-21T04:42:15;14.57;;;8.00;;
63050;SDS011;49136;47.416;19.402;2023-03-21T04:44:43;21.48;;;8.40;;
63050;SDS011;49136;47.416;19.402;2023-03-21T04:47:12;15.75;;;6.85;;
63050;SDS011;49136;47.416;19.402;2023-03-21T04:49:39;16.70;;;7.40;;
63050;SDS011;49136;47.416;19.402;2023-03-21T04:52:08;24.95;;;8.70;;
63050;SDS011;49136;47.416;19.402;2023-03-21T04:54:33;15.13;;;7.57;;
63050;SDS011;49136;47.416;19.402;2023-03-21T04:56:59;24.20;;;9.38;;
63050;SDS011;49136;47.416;19.402;2023-03-21T04:59:24;15.68;;;8.85;;
63050;SDS011;49136;47.416;19.402;2023-03-21T05:01:50;19.00;;;9.70;;
63050;SDS011;49136;47.416;19.402;2023-03-21T05:04:16;33.05;;;11.75;;
63050;SDS011;49136;47.416;19.402;2023-03-21T05:06:42;24.33;;;11.38;;
63050;SDS011;49136;47.416;19.402;2023-03-21T05:09:08;37.60;;;11.95;;
63050;SDS011;49136;47.416;19.402;2023-03-21T05:11:35;25.95;;;10.38;;
63050;SDS011;49136;47.416;19.402;2023-03-21T05:14:02;32.50;;;8.93;;
63050;SDS011;49136;47.416;19.402;2023-03-21T05:16:29;22.15;;;9.88;;
63050;SDS011;49136;47.416;19.402;2023-03-21T05:18:55;29.92;;;11.23;;
63050;SDS011;49136;47.416;19.402;2023-03-21T05:21:23;21.05;;;9.02;;
63050;SDS011;49136;47.416;19.402;2023-03-21T05:23:49;33.38;;;11.45;;
63050;SDS011;49136;47.416;19.402;2023-03-21T05:26:18;24.70;;;9.30;;
63050;SDS011;49136;47.416;19.402;2023-03-21T05:28:45;20.42;;;8.93;;
63050;SDS011;49136;47.416;19.402;2023-03-21T05:31:12;24.55;;;8.88;;
63050;SDS011;49136;47.416;19.402;2023-03-21T05:33:40;33.22;;;9.93;;
63050;SDS011;49136;47.416;19.402;2023-03-21T05:36:09;18.80;;;7.78;;
63050;SDS011;49136;47.416;19.402;2023-03-21T05:38:35;12.77;;;6.93;;
63050;SDS011;49136;47.416;19.402;2023-03-21T05:41:01;13.05;;;6.07;;
63050;SDS011;49136;47.416;19.402;2023-03-21T05:43:26;12.45;;;6.20;;
63050;SDS011;49136;47.416;19.402;2023-03-21T05:45:53;22.42;;;7.05;;
63050;SDS011;49136;47.416;19.402;2023-03-21T05:48:18;19.20;;;8.43;;
63050;SDS011;49136;47.416;19.402;2023-03-21T05:50:44;15.85;;;7.15;;
63050;SDS011;49136;47.416;19.402;2023-03-21T05:53:09;25.60;;;7.85;;
63050;SDS011;49136;47.416;19.402;2023-03-21T05:55:35;13.57;;;6.45;;
63050;SDS011;49136;47.416;19.402;2023-03-21T05:58:01;14.95;;;6.93;;
63050;SDS011;49136;47.416;19.402;2023-03-21T06:00:27;10.50;;;5.78;;
63050;SDS011;49136;47.416;19.402;2023-03-21T06:02:52;19.92;;;7.38;;
63050;SDS011;49136;47.416;19.402;2023-03-21T06:05:18;19.35;;;7.18;;
63050;SDS011;49136;47.416;19.402;2023-03-21T06:07:43;12.27;;;6.03;;
63050;SDS011;49136;47.416;19.402;2023-03-21T06:10:09;16.33;;;6.90;;
63050;SDS011;49136;47.416;19.402;2023-03-21T06:12:35;17.40;;;6.18;;
63050;SDS011;49136;47.416;19.402;2023-03-21T06:15:01;15.18;;;6.70;;
63050;SDS011;49136;47.416;19.402;2023-03-21T06:17:29;11.48;;;5.93;;
63050;SDS011;49136;47.416;19.402;2023-03-21T06:19:55;15.70;;;6.28;;
63050;SDS011;49136;47.416;19.402;2023-03-21T06:22:20;18.15;;;6.68;;
63050;SDS011;49136;47.416;19.402;2023-03-21T06:24:46;11.05;;;5.35;;
63050;SDS011;49136;47.416;19.402;2023-03-21T06:27:12;9.73;;;5.25;;
63050;SDS011;49136;47.416;19.402;2023-03-21T06:29:38;15.65;;;7.57;;
63050;SDS011;49136;47.416;19.402;2023-03-21T06:32:03;18.60;;;6.68;;
63050;SDS011;49136;47.416;19.402;2023-03-21T06:34:29;17.80;;;7.40;;
63050;SDS011;49136;47.416;19.402;2023-03-21T06:36:54;13.82;;;5.65;;
63050;SDS011;49136;47.416;19.402;2023-03-21T06:39:20;12.70;;;6.22;;
63050;SDS011;49136;47.416;19.402;2023-03-21T06:41:45;17.65;;;6.15;;
63050;SDS011;49136;47.416;19.402;2023-03-21T06:44:11;14.32;;;6.22;;
63050;SDS011;49136;47.416;19.402;2023-03-21T06:46:36;14.18;;;6.30;;
63050;SDS011;49136;47.416;19.402;2023-03-21T06:49:02;11.60;;;6.47;;
63050;SDS011;49136;47.416;19.402;2023-03-21T06:51:28;22.38;;;6.88;;
63050;SDS011;49136;47.416;19.402;2023-03-21T06:53:53;21.27;;;7.22;;
63050;SDS011;49136;47.416;19.402;2023-03-21T06:56:19;16.48;;;7.15;;
63050;SDS011;49136;47.416;19.402;2023-03-21T06:58:44;17.50;;;6.55;;
63050;SDS011;49136;47.416;19.402;2023-03-21T07:01:10;12.20;;;5.55;;
63050;SDS011;49136;47.416;19.402;2023-03-21T07:03:36;10.65;;;5.95;;
63050;SDS011;49136;47.416;19.402;2023-03-21T07:06:08;15.40;;;6.32;;
63050;SDS011;49136;47.416;19.402;2023-03-21T07:08:38;15.93;;;6.30;;
63050;SDS011;49136;47.416;19.402;2023-03-21T07:11:05;16.77;;;5.95;;
63050;SDS011;49136;47.416;19.402;2023-03-21T07:13:31;15.45;;;6.03;;
63050;SDS011;49136;47.416;19.402;2023-03-21T07:15:57;7.47;;;4.68;;
63050;SDS011;49136;47.416;19.402;2023-03-21T07:18:23;14.52;;;6.13;;
63050;SDS011;49136;47.416;19.402;2023-03-21T07:20:49;15.77;;;6.70;;
63050;SDS011;49136;47.416;19.402;2023-03-21T07:23:18;18.65;;;7.63;;
63050;SDS011;49136;47.416;19.402;2023-03-21T07:25:46;16.63;;;6.38;;
63050;SDS011;49136;47.416;19.402;2023-03-21T07:28:15;21.27;;;7.00;;
63050;SDS011;49136;47.416;19.402;2023-03-21T07:30:41;15.38;;;6.97;;
63050;SDS011;49136;47.416;19.402;2023-03-21T07:33:08;9.10;;;5.32;;
63050;SDS011;49136;47.416;19.402;2023-03-21T07:35:34;14.43;;;6.45;;
63050;SDS011;49136;47.416;19.402;2023-03-21T07:38:01;18.35;;;7.93;;
63050;SDS011;49136;47.416;19.402;2023-03-21T07:40:27;15.30;;;6.68;;
63050;SDS011;49136;47.416;19.402;2023-03-21T07:42:53;19.42;;;6.78;;
63050;SDS011;49136;47.416;19.402;2023-03-21T07:45:18;21.27;;;7.18;;
63050;SDS011;49136;47.416;19.402;2023-03-21T07:47:49;16.42;;;8.18;;
63050;SDS011;49136;47.416;19.402;2023-03-21T07:50:15;14.93;;;7.05;;
63050;SDS011;49136;47.416;19.402;2023-03-21T07:52:41;18.85;;;7.35;;
63050;SDS011;49136;47.416;19.402;2023-03-21T07:55:06;15.00;;;7.85;;
63050;SDS011;49136;47.416;19.402;2023-03-21T07:57:32;12.20;;;5.03;;
63050;SDS011;49136;47.416;19.402;2023-03-21T07:59:58;13.23;;;5.75;;
63050;SDS011;49136;47.416;19.402;2023-03-21T08:02:24;12.70;;;6.70;;
63050;SDS011;49136;47.416;19.402;2023-03-21T08:04:49;9.88;;;5.35;;
63050;SDS011;49136;47.416;19.402;2023-03-21T08:07:15;14.20;;;6.50;;
63050;SDS011;49136;47.416;19.402;2023-03-21T08:09:44;16.60;;;6.82;;
63050;SDS011;49136;47.416;19.402;2023-03-21T08:12:10;18.58;;;7.20;;
63050;SDS011;49136;47.416;19.402;2023-03-21T08:14:35;16.20;;;7.00;;
63050;SDS011;49136;47.416;19.402;2023-03-21T08:17:02;12.45;;;6.55;;
63050;SDS011;49136;47.416;19.402;2023-03-21T08:19:28;13.82;;;6.55;;
63050;SDS011;49136;47.416;19.402;2023-03-21T08:21:55;16.25;;;8.00;;
63050;SDS011;49136;47.416;19.402;2023-03-21T08:24:23;22.05;;;9.15;;
63050;SDS011;49136;47.416;19.402;2023-03-21T08:26:49;12.07;;;6.45;;
63050;SDS011;49136;47.416;19.402;2023-03-21T08:29:15;13.55;;;6.53;;
63050;SDS011;49136;47.416;19.402;2023-03-21T08:31:41;18.98;;;6.28;;
63050;SDS011;49136;47.416;19.402;2023-03-21T08:34:06;12.38;;;5.78;;
63050;SDS011;49136;47.416;19.402;2023-03-21T08:36:32;16.10;;;6.38;;
63050;SDS011;49136;47.416;19.402;2023-03-21T08:39:00;15.20;;;7.28;;
63050;SDS011;49136;47.416;19.402;2023-03-21T08:41:32;15.00;;;6.82;;
63050;SDS011;49136;47.416;19.402;2023-03-21T08:44:02;10.60;;;5.70;;
63050;SDS011;49136;47.416;19.402;2023-03-21T08:46:30;12.30;;;4.93;;
63050;SDS011;49136;47.416;19.402;2023-03-21T08:48:55;11.05;;;6.03;;
63050;SDS011;49136;47.416;19.402;2023-03-21T08:51:21;14.45;;;6.32;;
63050;SDS011;49136;47.416;19.402;2023-03-21T08:53:46;11.80;;;5.38;;
63050;SDS011;49136;47.416;19.402;2023-03-21T08:56:15;14.20;;;6.43;;
63050;SDS011;49136;47.416;19.402;2023-03-21T08:58:41;12.52;;;6.00;;
63050;SDS011;49136;47.416;19.402;2023-03-21T09:01:06;10.48;;;5.07;;
63050;SDS011;49136;47.416;19.402;2023-03-21T09:03:35;12.98;;;5.38;;
63050;SDS011;49136;47.416;19.402;2023-03-21T09:06:01;9.55;;;5.18;;
63050;SDS011;49136;47.416;19.402;2023-03-21T09:08:27;11.30;;;5.43;;
63050;SDS011;49136;47.416;19.402;2023-03-21T09:10:52;12.00;;;5.88;;
63050;SDS011;49136;47.416;19.402;2023-03-21T09:13:19;13.77;;;5.75;;
63050;SDS011;49136;47.416;19.402;2023-03-21T09:15:44;14.82;;;5.60;;
63050;SDS011;49136;47.416;19.402;2023-03-21T09:18:10;10.88;;;5.10;;
63050;SDS011;49136;47.416;19.402;2023-03-21T09:20:40;10.23;;;4.70;;
63050;SDS011;49136;47.416;19.402;2023-03-21T09:23:07;13.75;;;6.28;;
63050;SDS011;49136;47.416;19.402;2023-03-21T09:25:34;15.20;;;7.65;;
63050;SDS011;49136;47.416;19.402;2023-03-21T09:28:00;15.82;;;7.55;;
63050;SDS011;49136;47.416;19.402;2023-03-21T09:30:28;7.88;;;4.60;;
63050;SDS011;49136;47.416;19.402;2023-03-21T09:32:55;7.07;;;4.18;;
63050;SDS011;49136;47.416;19.402;2023-03-21T09:35:20;9.05;;;4.60;;
63050;SDS011;49136;47.416;19.402;2023-03-21T09:37:48;16.45;;;5.32;;
63050;SDS011;49136;47.416;19.402;2023-03-21T09:40:18;8.85;;;5.18;;
63050;SDS011;49136;47.416;19.402;2023-03-21T09:46:02;7.22;;;4.15;;
63050;SDS011;49136;47.416;19.402;2023-03-21T09:48:55;6.28;;;3.08;;
63050;SDS011;49136;47.416;19.402;2023-03-21T09:51:27;9.77;;;3.58;;
63050;SDS011;49136;47.416;19.402;2023-03-21T09:53:58;5.53;;;3.10;;
63050;SDS011;49136;47.416;19.402;2023-03-21T09:56:26;4.90;;;3.08;;
63050;SDS011;49136;47.416;19.402;2023-03-21T09:58:53;23.15;;;7.22;;
63050;SDS011;49136;47.416;19.402;2023-03-21T10:01:29;9.75;;;4.43;;
63050;SDS011;49136;47.416;19.402;2023-03-21T10:04:06;9.60;;;4.10;;
63050;SDS011;49136;47.416;19.402;2023-03-21T10:06:35;5.07;;;2.95;;
63050;SDS011;49136;47.416;19.402;2023-03-21T10:09:06;3.90;;;2.30;;
63050;SDS011;49136;47.416;19.402;2023-03-21T10:11:44;6.10;;;2.65;;
63050;SDS011;49136;47.416;19.402;2023-03-21T10:16:42;6.88;;;1.90;;
63050;SDS011;49136;47.416;19.402;2023-03-21T10:19:11;5.15;;;2.10;;
63050;SDS011;49136;47.416;19.402;2023-03-21T10:21:39;8.70;;;2.03;;
63050;SDS011;49136;47.416;19.402;2023-03-21T10:24:14;4.10;;;2.17;;
63050;SDS011;49136;47.416;19.402;2023-03-21T10:26:42;4.28;;;2.03;;
63050;SDS011;49136;47.416;19.402;2023-03-21T10:29:09;4.22;;;2.20;;
63050;SDS011;49136;47.416;19.402;2023-03-21T10:34:11;2.30;;;1.63;;
63050;SDS011;49136;47.416;19.402;2023-03-21T10:36:56;2.95;;;2.00;;
63050;SDS011;49136;47.416;19.402;2023-03-21T10:39:25;4.05;;;2.30;;
63050;SDS011;49136;47.416;19.402;2023-03-21T10:41:56;4.32;;;2.53;;
63050;SDS011;49136;47.416;19.402;2023-03-21T10:44:21;2.40;;;1.80;;
63050;SDS011;49136;47.416;19.402;2023-03-21T10:46:55;7.60;;;2.20;;
63050;SDS011;49136;47.416;19.402;2023-03-21T10:49:23;2.20;;;1.67;;
63050;SDS011;49136;47.416;19.402;2023-03-21T10:51:52;8.13;;;1.83;;
63050;SDS011;49136;47.416;19.402;2023-03-21T10:54:21;6.70;;;2.17;;
63050;SDS011;49136;47.416;19.402;2023-03-21T10:59:19;5.15;;;1.40;;
63050;SDS011;49136;47.416;19.402;2023-03-21T11:01:48;3.53;;;2.13;;
63050;SDS011;49136;47.416;19.402;2023-03-21T11:04:20;3.95;;;1.80;;
63050;SDS011;49136;47.416;19.402;2023-03-21T11:06:52;2.55;;;1.50;;
63050;SDS011;49136;47.416;19.402;2023-03-21T11:09:21;2.85;;;1.92;;
63050;SDS011;49136;47.416;19.402;2023-03-21T11:11:50;5.35;;;2.20;;
63050;SDS011;49136;47.416;19.402;2023-03-21T11:14:25;3.72;;;1.50;;
63050;SDS011;49136;47.416;19.402;2023-03-21T11:16:57;3.03;;;1.48;;
63050;SDS011;49136;47.416;19.402;2023-03-21T11:19:32;5.78;;;2.22;;
63050;SDS011;49136;47.416;19.402;2023-03-21T11:22:06;3.05;;;1.70;;
63050;SDS011;49136;47.416;19.402;2023-03-21T11:24:32;3.30;;;2.15;;
63050;SDS011;49136;47.416;19.402;2023-03-21T11:26:59;2.85;;;1.77;;
63050;SDS011;49136;47.416;19.402;2023-03-21T11:29:37;3.55;;;1.88;;
63050;SDS011;49136;47.416;19.402;2023-03-21T11:32:25;2.53;;;1.50;;
63050;SDS011;49136;47.416;19.402;2023-03-21T11:35:05;2.03;;;1.15;;
63050;SDS011;49136;47.416;19.402;2023-03-21T11:37:39;2.42;;;1.73;;
63050;SDS011;49136;47.416;19.402;2023-03-21T11:40:18;2.75;;;1.60;;
63050;SDS011;49136;47.416;19.402;2023-03-21T11:42:46;3.30;;;2.10;;
63050;SDS011;49136;47.416;19.402;2023-03-21T11:45:21;4.55;;;1.80;;
63050;SDS011;49136;47.416;19.402;2023-03-21T11:47:49;2.25;;;1.58;;
63050;SDS011;49136;47.416;19.402;2023-03-21T11:50:19;2.53;;;1.73;;
63050;SDS011;49136;47.416;19.402;2023-03-21T12:07:11;1.85;;;1.40;;
63050;SDS011;49136;47.416;19.402;2023-03-21T12:09:43;2.25;;;1.20;;
63050;SDS011;49136;47.416;19.402;2023-03-21T12:14:54;2.08;;;1.20;;
63050;SDS011;49136;47.416;19.402;2023-03-21T12:26:13;5.10;;;1.63;;
63050;SDS011;49136;47.416;19.402;2023-03-21T12:39:51;1.65;;;0.88;;
63050;SDS011;49136;47.416;19.402;2023-03-21T12:45:17;2.63;;;0.90;;
63050;SDS011;49136;47.416;19.402;2023-03-21T12:47:50;2.42;;;1.33;;
63050;SDS011;49136;47.416;19.402;2023-03-21T12:53:26;2.88;;;1.85;;
63050;SDS011;49136;47.416;19.402;2023-03-21T12:56:00;1.75;;;1.35;;
63050;SDS011;49136;47.416;19.402;2023-03-21T12:58:29;2.78;;;1.48;;
63050;SDS011;49136;47.416;19.402;2023-03-21T13:01:00;1.90;;;1.60;;
63050;SDS011;49136;47.416;19.402;2023-03-21T13:03:45;2.50;;;1.48;;
63050;SDS011;49136;47.416;19.402;2023-03-21T13:06:16;5.00;;;1.90;;
63050;SDS011;49136;47.416;19.402;2023-03-21T13:09:07;4.97;;;2.47;;
63050;SDS011;49136;47.416;19.402;2023-03-21T13:11:40;4.63;;;2.05;;
63050;SDS011;49136;47.416;19.402;2023-03-21T13:16:56;4.75;;;2.30;;
63050;SDS011;49136;47.416;19.402;2023-03-21T13:22:08;6.35;;;2.00;;
63050;SDS011;49136;47.416;19.402;2023-03-21T13:24:40;3.63;;;2.33;;
63050;SDS011;49136;47.416;19.402;2023-03-21T13:32:32;4.10;;;1.92;;
63050;SDS011;49136;47.416;19.402;2023-03-21T13:34:59;4.15;;;2.70;;
63050;SDS011;49136;47.416;19.402;2023-03-21T13:37:29;4.95;;;2.60;;
63050;SDS011;49136;47.416;19.402;2023-03-21T13:40:01;5.57;;;2.70;;
63050;SDS011;49136;47.416;19.402;2023-03-21T13:42:34;3.95;;;3.03;;
63050;SDS011;49136;47.416;19.402;2023-03-21T13:45:09;5.65;;;2.83;;
63050;SDS011;49136;47.416;19.402;2023-03-21T13:53:08;5.68;;;3.13;;
63050;SDS011;49136;47.416;19.402;2023-03-21T13:55:39;9.98;;;2.72;;
63050;SDS011;49136;47.416;19.402;2023-03-21T13:58:49;3.85;;;2.53;;
63050;SDS011;49136;47.416;19.402;2023-03-21T14:03:40;3.83;;;2.22;;
63050;SDS011;49136;47.416;19.402;2023-03-21T14:06:06;5.28;;;2.35;;
63050;SDS011;49136;47.416;19.402;2023-03-21T14:08:33;4.05;;;2.38;;
63050;SDS011;49136;47.416;19.402;2023-03-21T14:11:02;6.00;;;2.30;;
63050;SDS011;49136;47.416;19.402;2023-03-21T14:13:30;6.93;;;2.53;;
63050;SDS011;49136;47.416;19.402;2023-03-21T14:15:59;10.77;;;2.88;;
63050;SDS011;49136;47.416;19.402;2023-03-21T14:18:38;4.45;;;2.60;;
63050;SDS011;49136;47.416;19.402;2023-03-21T14:21:13;3.72;;;2.25;;
63050;SDS011;49136;47.416;19.402;2023-03-21T14:23:50;5.28;;;2.55;;
63050;SDS011;49136;47.416;19.402;2023-03-21T14:26:21;3.47;;;1.83;;
63050;SDS011;49136;47.416;19.402;2023-03-21T14:28:47;3.75;;;2.13;;
63050;SDS011;49136;47.416;19.402;2023-03-21T14:31:15;5.63;;;3.30;;
63050;SDS011;49136;47.416;19.402;2023-03-21T14:33:47;8.55;;;2.88;;
63050;SDS011;49136;47.416;19.402;2023-03-21T14:36:19;8.15;;;2.97;;
63050;SDS011;49136;47.416;19.402;2023-03-21T14:38:55;4.70;;;2.78;;
63050;SDS011;49136;47.416;19.402;2023-03-21T14:41:48;5.82;;;2.47;;
63050;SDS011;49136;47.416;19.402;2023-03-21T14:46:49;6.88;;;2.65;;
63050;SDS011;49136;47.416;19.402;2023-03-21T14:49:35;5.05;;;2.65;;
63050;SDS011;49136;47.416;19.402;2023-03-21T14:52:02;3.03;;;2.15;;
63050;SDS011;49136;47.416;19.402;2023-03-21T14:54:30;5.63;;;1.95;;
63050;SDS011;49136;47.416;19.402;2023-03-21T14:56:58;7.32;;;2.58;;
63050;SDS011;49136;47.416;19.402;2023-03-21T14:59:28;4.03;;;1.65;;
63050;SDS011;49136;47.416;19.402;2023-03-21T15:02:01;11.27;;;2.35;;
63050;SDS011;49136;47.416;19.402;2023-03-21T15:04:29;4.72;;;1.80;;
63050;SDS011;49136;47.416;19.402;2023-03-21T15:06:59;6.35;;;2.63;;
63050;SDS011;49136;47.416;19.402;2023-03-21T15:09:30;6.95;;;2.40;;
63050;SDS011;49136;47.416;19.402;2023-03-21T15:11:58;7.45;;;2.60;;
63050;SDS011;49136;47.416;19.402;2023-03-21T15:14:30;8.38;;;5.50;;
63050;SDS011;49136;47.416;19.402;2023-03-21T15:16:58;6.05;;;2.03;;
63050;SDS011;49136;47.416;19.402;2023-03-21T15:19:30;4.07;;;2.13;;
63050;SDS011;49136;47.416;19.402;2023-03-21T15:22:00;4.10;;;1.90;;
63050;SDS011;49136;47.416;19.402;2023-03-21T15:24:33;3.42;;;1.95;;
63050;SDS011;49136;47.416;19.402;2023-03-21T15:29:31;2.20;;;1.58;;
63050;SDS011;49136;47.416;19.402;2023-03-21T15:32:02;5.60;;;2.10;;
63050;SDS011;49136;47.416;19.402;2023-03-21T15:34:30;4.05;;;1.92;;
63050;SDS011;49136;47.416;19.402;2023-03-21T15:36:57;4.63;;;2.22;;
63050;SDS011;49136;47.416;19.402;2023-03-21T15:39:27;3.15;;;1.73;;
63050;SDS011;49136;47.416;19.402;2023-03-21T15:41:57;3.47;;;1.65;;
63050;SDS011;49136;47.416;19.402;2023-03-21T15:44:28;3.22;;;1.70;;
63050;SDS011;49136;47.416;19.402;2023-03-21T15:46:54;5.43;;;2.60;;
63050;SDS011;49136;47.416;19.402;2023-03-21T15:49:25;27.08;;;12.07;;
63050;SDS011;49136;47.416;19.402;2023-03-21T15:54:43;15.20;;;7.03;;
63050;SDS011;49136;47.416;19.402;2023-03-21T15:59:48;4.57;;;2.38;;
63050;SDS011;49136;47.416;19.402;2023-03-21T16:02:19;16.15;;;7.22;;
63050;SDS011;49136;47.416;19.402;2023-03-21T16:07:22;6.85;;;3.25;;
63050;SDS011;49136;47.416;19.402;2023-03-21T16:09:48;4.38;;;2.58;;
63050;SDS011;49136;47.416;19.402;2023-03-21T16:12:14;5.75;;;2.50;;
63050;SDS011;49136;47.416;19.402;2023-03-21T16:14:40;6.95;;;2.80;;
63050;SDS011;49136;47.416;19.402;2023-03-21T16:19:52;4.28;;;2.13;;
63050;SDS011;49136;47.416;19.402;2023-03-21T16:22:19;4.00;;;2.42;;
63050;SDS011;49136;47.416;19.402;2023-03-21T16:24:46;4.03;;;2.30;;
63050;SDS011;49136;47.416;19.402;2023-03-21T16:27:12;4.95;;;2.60;;
63050;SDS011;49136;47.416;19.402;2023-03-21T16:29:45;15.38;;;5.00;;
63050;SDS011;49136;47.416;19.402;2023-03-21T16:32:14;6.40;;;3.40;;
63050;SDS011;49136;47.416;19.402;2023-03-21T16:34:41;5.28;;;2.90;;
63050;SDS011;49136;47.416;19.402;2023-03-21T16:37:08;8.30;;;2.95;;
63050;SDS011;49136;47.416;19.402;2023-03-21T16:39:35;6.80;;;3.20;;
63050;SDS011;49136;47.416;19.402;2023-03-21T16:42:01;7.63;;;2.72;;
63050;SDS011;49136;47.416;19.402;2023-03-21T16:44:27;8.27;;;3.30;;
63050;SDS011;49136;47.416;19.402;2023-03-21T16:46:52;7.90;;;3.05;;